createdAt,value
2022-12-17T00:04:55.653Z,-7.6
2022-12-17T00:10:02.009Z,-7.6
2022-12-17T00:15:08.425Z,-7.6
2022-12-17T00:20:14.764Z,-7.6
2022-12-17T00:25:21.132Z,-7.5
2022-12-17T00:30:27.492Z,-7.5
2022-12-17T00:35:35.486Z,-7.5
2022-12-17T00:40:41.884Z,-7.5
2022-12-17T00:50:56.288Z,-7.5
2022-12-17T00:56:02.549Z,-7.5
2022-12-17T01:01:08.956Z,-7.5
2022-12-17T01:06:15.288Z,-7.5
2022-12-17T01:11:21.623Z,-7.5
2022-12-17T01:16:28.073Z,-7.5
2022-12-17T01:21:34.433Z,-7.5
2022-12-17T01:26:40.742Z,-7.5
2022-12-17T01:31:47.181Z,-7.5
2022-12-17T01:36:53.511Z,-7.4
2022-12-17T01:41:59.844Z,-7.4
2022-12-17T01:47:06.277Z,-7.4
2022-12-17T01:52:12.641Z,-7.4
2022-12-17T01:57:18.959Z,-7.4
2022-12-17T02:02:25.456Z,-7.4
2022-12-17T02:07:31.841Z,-7.4
2022-12-17T02:12:38.076Z,-7.4
2022-12-17T02:17:44.435Z,-7.4
2022-12-17T02:22:50.847Z,-7.4
2022-12-17T02:27:58.775Z,-7.4
2022-12-17T02:38:13.138Z,-7.4
2022-12-17T02:43:19.510Z,-7.4
2022-12-17T02:48:25.880Z,-7.4
2022-12-17T02:53:32.383Z,-7.3
2022-12-17T03:03:50.301Z,-7.3
2022-12-17T03:08:54.545Z,-7.4
2022-12-17T03:14:00.886Z,-7.3
2022-12-17T03:19:07.253Z,-7.4
2022-12-17T03:24:13.724Z,-7.3
2022-12-17T03:34:27.992Z,-7.3
2022-12-17T03:39:34.358Z,-7.3
2022-12-17T03:44:40.718Z,-7.3
2022-12-17T03:49:47.088Z,-7.4
2022-12-17T03:54:53.489Z,-7.3
2022-12-17T03:59:59.827Z,-7.4
2022-12-17T04:10:14.187Z,-7.3
2022-12-17T04:15:20.617Z,-7.3
2022-12-17T04:20:28.483Z,-7.3
2022-12-17T04:25:34.887Z,-7.3
2022-12-17T04:30:41.298Z,-7.4
2022-12-17T04:35:47.612Z,-7.3
2022-12-17T04:40:53.993Z,-7.3
2022-12-17T04:46:00.435Z,-7.3
2022-12-17T04:51:06.711Z,-7.3
2022-12-17T04:56:13.099Z,-7.4
2022-12-17T05:01:19.563Z,-7.4
2022-12-17T05:06:25.841Z,-7.4
2022-12-17T05:11:32.244Z,-7.4
2022-12-17T05:16:40.181Z,-7.4
2022-12-17T05:21:46.536Z,-7.4
2022-12-17T05:26:52.934Z,-7.4
2022-12-17T05:37:07.257Z,-7.4
2022-12-17T05:42:13.699Z,-7.4
2022-12-17T05:47:19.973Z,-7.4
2022-12-17T05:52:26.377Z,-7.4
2022-12-17T05:57:32.769Z,-7.4
2022-12-17T06:02:39.290Z,-7.4
2022-12-17T06:18:01.431Z,-7.4
2022-12-17T06:23:07.795Z,-7.4
2022-12-17T06:28:14.141Z,-7.4
2022-12-17T06:33:20.566Z,-7.4
2022-12-17T06:38:26.909Z,-7.4
2022-12-17T06:43:33.685Z,-7.4
2022-12-17T06:48:39.648Z,-7.4
2022-12-17T06:53:45.989Z,-7.4
2022-12-17T06:58:52.361Z,-7.4
2022-12-17T07:03:58.778Z,-7.4
2022-12-17T07:09:05.119Z,-7.4
2022-12-17T07:14:11.485Z,-7.4
2022-12-17T07:19:20.465Z,-7.4
2022-12-17T07:24:24.221Z,-7.4
2022-12-17T07:29:30.620Z,-7.4
2022-12-17T07:34:36.985Z,-7.4
2022-12-17T07:39:43.317Z,-7.4
2022-12-17T07:44:49.691Z,-7.4
2022-12-17T07:49:56.164Z,-7.4
2022-12-17T07:55:02.465Z,-7.4
2022-12-17T08:00:08.836Z,-7.4
2022-12-17T08:05:15.221Z,-7.4
2022-12-17T08:10:21.588Z,-7.4
2022-12-17T08:15:27.922Z,-7.4
2022-12-17T08:20:34.455Z,-7.4
2022-12-17T08:25:40.668Z,-7.4
2022-12-17T08:30:47.115Z,-7.4
2022-12-17T08:35:53.435Z,-7.4
2022-12-17T08:40:59.774Z,-7.4
2022-12-17T08:46:06.256Z,-7.4
2022-12-17T08:56:20.521Z,-7.4
2022-12-17T09:01:28.598Z,-7.4
2022-12-17T09:06:39.109Z,-7.4
2022-12-17T09:11:42.941Z,-7.3
2022-12-17T09:16:49.244Z,-7.2
2022-12-17T09:21:55.495Z,-7
2022-12-17T09:27:01.903Z,-6.8
2022-12-17T09:32:08.236Z,-6.7
2022-12-17T09:37:14.606Z,-6.8
2022-12-17T09:42:21.011Z,-6.8
2022-12-17T09:47:27.362Z,-6.9
2022-12-17T09:52:33.720Z,-6.9
2022-12-17T09:57:40.115Z,-7
2022-12-17T10:02:46.620Z,-7
2022-12-17T10:07:52.815Z,-7
2022-12-17T10:12:59.219Z,-7
2022-12-17T10:18:05.567Z,-7
2022-12-17T10:23:11.950Z,-7
2022-12-17T10:28:18.328Z,-7
2022-12-17T10:33:24.693Z,-6.9
2022-12-17T10:38:32.645Z,-6.9
2022-12-17T10:43:40.632Z,-6.9
2022-12-17T10:48:48.602Z,-6.9
2022-12-17T10:53:56.541Z,-6.9
2022-12-17T10:59:04.596Z,-6.9
2022-12-17T11:04:12.490Z,-6.9
2022-12-17T11:09:20.513Z,-6.9
2022-12-17T11:14:28.442Z,-6.8
2022-12-17T11:19:36.370Z,-6.8
2022-12-17T11:24:44.342Z,-6.8
2022-12-17T11:29:52.345Z,-6.8
2022-12-17T11:35:00.293Z,-6.8
2022-12-17T11:40:08.248Z,-6.7
2022-12-17T11:45:16.228Z,-6.7
2022-12-17T11:50:24.210Z,-6.7
2022-12-17T12:00:40.144Z,-6.6
2022-12-17T12:05:52.032Z,-6.6
2022-12-17T12:10:56.054Z,-6.6
2022-12-17T12:16:04.096Z,-6.6
2022-12-17T12:21:12.006Z,-6.5
2022-12-17T12:31:28.059Z,-6.5
2022-12-17T12:36:35.902Z,-6.5
2022-12-17T12:41:43.881Z,-6.5
2022-12-17T12:46:51.856Z,-6.5
2022-12-17T12:51:59.814Z,-6.4
2022-12-17T13:02:15.913Z,-6.3
2022-12-17T13:17:38.059Z,-6.3
2022-12-17T17:34:14.810Z,-6.6
2022-12-17T18:51:14.305Z,-6.8
2022-12-17T20:23:37.730Z,-7.1
2022-12-17T20:59:33.501Z,-7.2
2022-12-17T21:56:01.361Z,-7.4
2022-12-17T22:06:15.999Z,-7.4
2022-12-17T22:16:32.050Z,-7.4
2022-12-17T22:26:46.612Z,-7.5
2022-12-17T22:57:37.379Z,-7.6
2022-12-17T23:02:39.962Z,-7.6
2022-12-17T23:38:35.738Z,-7.7
2022-12-17T23:43:43.581Z,-7.7
2022-12-17T23:53:59.548Z,-7.7
